Northeast Iowa Regional Airport
Tuesday 11:55 AM
Weather Sunny
Temperature 73°
Dew Point 50°
Feels Like
Relative Humidity 44
%
Visibility 10
mi
Pressure 1015.2
mb
Wind Direction SSE
Wind Speed 13
mph
Last Hour Precip 0.00
"
KCCY 281655Z AUTO 15011KT 10SM CLR 23/10 A2998 RMK AO2

Recent Observations

Time Present Weather Temp DP Feels RH% Vsby Pressure Ceiling Direction Speed Gust 1h Precip
11:55AM
VFR
73° 50° 44
%
10
mi
1015.2
mb
None SSE 13
mph
0.00"
KCCY 281655Z AUTO 15011KT 10SM CLR 23/10 A2998 RMK AO2
11:35AM
VFR
72° 50° 46
%
10
mi
1015.6
mb
None SE 10
mph
18
mph
0.00"
KCCY 281635Z AUTO 14009G16KT 10SM CLR 22/10 A2999 RMK AO2
11:15AM
VFR
72° 48° 43
%
10
mi
1015.2
mb
None SE 10
mph
18
mph
0.00"
KCCY 281615Z AUTO 14009G16KT 10SM CLR 22/09 A2998 RMK AO2
10:55AM
VFR
70° 48° 46
%
10
mi
1015.6
mb
None SE 13
mph
0.00"
KCCY 281555Z AUTO 13011KT 10SM CLR 21/09 A2999 RMK AO2
10:35AM
VFR
68° 48° 49
%
10
mi
1015.9
mb
None SSE 12
mph
0.00"
KCCY 281535Z AUTO 15010KT 10SM CLR 20/09 A3000 RMK AO2
10:15AM
VFR
66° 46° 49
%
10
mi
1015.9
mb
None SE 12
mph
0.00"
KCCY 281515Z AUTO 13010KT 10SM CLR 19/08 A3000 RMK AO2
9:55AM
VFR
64° 46° 52
%
10
mi
1015.9
mb
None SE 14
mph
0.00"
KCCY 281455Z AUTO 14012KT 10SM CLR 18/08 A3000 RMK AO2
9:35AM
VFR
63° 46° 55
%
10
mi
1015.9
mb
None SE 10
mph
18
mph
0.00"
KCCY 281435Z AUTO 13009G16KT 10SM CLR 17/08 A3000 RMK AO2
9:15AM
VFR
61° 48° 63
%
10
mi
1015.9
mb
None SE 9
mph
0.00"
KCCY 281415Z AUTO 13008KT 10SM CLR 16/09 A3000 RMK AO2
8:55AM
VFR
59° 48° 67
%
10
mi
1015.6
mb
None SE 10
mph
0.00"
KCCY 281355Z AUTO 13009KT 10SM CLR 15/09 A2999 RMK AO2
8:35AM
VFR
59° 48° 67
%
10
mi
1015.6
mb
None ESE 10
mph
0.00"
KCCY 281335Z AUTO 12009KT 10SM CLR 15/09 A2999 RMK AO2
8:15AM
VFR
57° 48° 72
%
10
mi
1015.6
mb
None ESE 9
mph
0.00"
KCCY 281315Z AUTO 12008KT 10SM CLR 14/09 A2999 RMK AO2
7:55AM
VFR
57° 50° 77
%
10
mi
1015.6
mb
None ESE 10
mph
0.00"
KCCY 281255Z AUTO 12009KT 10SM CLR 14/10 A2999 RMK AO2
7:35AM
VFR
55° 50° 82
%
10
mi
1015.2
mb
None SE 8
mph
0.00"
KCCY 281235Z AUTO 13007KT 10SM CLR 13/10 A2998 RMK AO2
7:15AM
VFR
55° 50° 82
%
10
mi
1015.2
mb
None ESE 8
mph
0.00"
KCCY 281215Z AUTO 11007KT 10SM CLR 13/10 A2998 RMK AO2
6:55AM
VFR
55° 50° 82
%
10
mi
1014.9
mb
None ESE 9
mph
0.00"
KCCY 281155Z AUTO 11008KT 10SM CLR 13/10 A2997 RMK AO2
6:35AM
VFR
55° 52° 88
%
10
mi
1014.9
mb
None ESE 10
mph
0.00"
KCCY 281135Z AUTO 11009KT 10SM CLR 13/11 A2997 RMK AO2
6:15AM
VFR
55° 52° 88
%
10
mi
1014.9
mb
None ESE 8
mph
0.00"
KCCY 281115Z AUTO 12007KT 10SM CLR 13/11 A2997 RMK AO2
5:55AM
VFR
57° 54° 88
%
10
mi
1014.6
mb
None E 9
mph
0.00"
KCCY 281055Z AUTO 10008KT 10SM CLR 14/12 A2996 RMK AO2
5:35AM
VFR
57° 54° 88
%
10
mi
1014.6
mb
None ESE 9
mph
0.00"
KCCY 281035Z AUTO 11008KT 10SM CLR 14/12 A2996 RMK AO2
Click here to show this page without METARs/TAFs included